Winchester, CA (92596)

12:00 PM PDT on October 23, 2014 (GMT -0700)
Murrieta/temecula French Vall | Change Station
CLOSE
Current Station
Airport
Location: Murrieta/temecula French Vall,
Elevation: 1348 ft
Nearby Weather Stations

Elev 1348 ft 33.57 °N, 117.13 °W | Updated 5 minutes ago

Clear
Clear
84 °F
Feels Like 84 °F
N
5
Wind Variable Wind from SW

Today
High -- | Low -- °F
--% Chance of Precip.
Yesterday
High -- | Low -- °F
Precip. -- in
6:59 AM 6:05 PM
Waning Crescent, 0% visible
Pressure 30.02 in
Visibility 10.0 miles
Clouds Clear
Dew Point 34 °F
Humidity 16%
Rainfall 0.00 in
Snow Depth Not available.
UV 6 out of 12
Pollen 3.80 out of 12
Air Quality Not available.
Flu Activity Not available.
METAR KF70 231855Z AUTO 23004KT 10SM CLR 29/01 A3002 RMK AO1

More Conditions Fewer Conditions

Pressure 30.02 in
Visibility 10.0 miles
Clouds Clear
Dew Point 34 °F
Humidity 16%
Rainfall 0.00 in
Snow Depth Not available.
UV 6 out of 12
Pollen 3.80 out of 12
Air Quality Not available.
Flu Activity Not available.
METAR KF70 231855Z AUTO 23004KT 10SM CLR 29/01 A3002 RMK AO1

More Conditions Fewer Conditions

10-Day Weather Forecast

Almanac

Astronomy

Oct. 23, 2014 Rise Set
Actual Time 6:59 AM PDT 6:05 PM PDT
Civil Twilight 6:34 AM PDT 6:30 PM PDT
Nautical Twilight 6:05 AM PDT 6:59 PM PDT
Astronomical Twilight 5:36 AM PDT 7:28 PM PDT
Moon 6:44 AM PDT 6:09 PM PDT
Length of Visible Light 11h 56m
Length of Day
11h 05m
Tomorrow will be 1m 56s shorter.
Waning Crescent, 0% of the Moon is Illuminated
Today
Waning Crescent
Oct 23
New
Oct 30
First Quarter
Nov 6
Full
Nov 14
Last Quarter

Today's Extremes

State Highs State Lows

Community

WunderPhotos

Upload Photos

1,764,341 photos uploaded!

WunderBlogs® & News

By Dr. Jeff Masters
Director of Meteorology, Weather Underground
By Kari Strenfel
Meteorologist, Weather Underground
By Christopher C. Burt
Weather Historian, Weather Underground
October 23, 2014
October 23, 2014
October 23, 2014

Nearby

Snow Depth

Station Depth Elevation
Virginia Lakes Ridge 0 in 9200 ft
Leavitt Lake 0 in 9400 ft
Leavitt Meadows 0 in 7200 ft
Summit Meadow 1 in 9122 ft
Monitor Pass 1 in 8350 ft

Earthquake Activity

City Distance Mag. Time & Date
Delta, Mexico 135 miles 2.5 8:53 PM PDT
2014-10-21
Alberto Oviedo Mota, Mexico 150 miles 2.7 4:13 PM PDT
2014-10-21
Alberto Oviedo Mota, Mexico 148 miles 3.3 3:57 PM PDT
2014-10-21
Minimum magnitude displayed is 2.5.

Coastal Water Temperatures

Place Temperature
No Stations Reporting

Nearby Weather Stations